Time;durP1;ratioP1;P1;durP2;ratioP2;P2;SDS_P1;SDS_P2;PMS_P1;PMS_P2;Temp;Humidity;BMP_temperature;BMP_pressure;BME280_temperature;BME280_humidity;BME280_pressure;Samples;Min_cycle;Max_cycle;Signal;HPM_P1;HPM_P2
2022/05/11 00:00:59;;;;;;;16.17;10.37;;;20.90;35.30;;;;;;5017151;28;20551;-70
2022/05/11 00:03:25;;;;;;;16.73;9.67;;;20.90;35.70;;;;;;5014607;28;20441;-70
2022/05/11 00:05:51;;;;;;;22.17;10.60;;;21.00;34.80;;;;;;5023652;28;20206;-70
2022/05/11 00:08:17;;;;;;;16.17;9.67;;;20.80;35.90;;;;;;5031974;28;20238;-70
2022/05/11 00:10:43;;;;;;;19.60;10.73;;;20.70;36.50;;;;;;5031820;28;20418;-70
2022/05/11 00:13:09;;;;;;;14.50;10.20;;;20.70;36.30;;;;;;5019581;28;20992;-70
2022/05/11 00:15:35;;;;;;;21.57;10.73;;;20.70;37.60;;;;;;5016847;28;20464;-70
2022/05/11 00:18:01;;;;;;;19.70;10.90;;;20.70;37.00;;;;;;5014459;28;20522;-70
2022/05/11 00:20:28;;;;;;;12.93;10.47;;;20.50;36.80;;;;;;5011900;28;20448;-70
2022/05/11 00:22:55;;;;;;;13.93;10.37;;;20.60;35.90;;;;;;5010332;28;20463;-70
2022/05/11 00:25:24;;;;;;;15.03;10.50;;;20.60;37.40;;;;;;5019064;28;20450;-70
2022/05/11 00:27:51;;;;;;;13.13;10.17;;;20.60;35.70;;;;;;5027351;28;20437;-70
2022/05/11 00:30:17;;;;;;;13.93;10.30;;;20.40;37.50;;;;;;5031303;28;20596;-70
2022/05/11 00:32:43;;;;;;;22.03;9.97;;;20.40;37.20;;;;;;5031022;28;20829;-70
2022/05/11 00:35:09;;;;;;;22.40;10.07;;;20.20;37.80;;;;;;5012983;28;20194;-70
2022/05/11 00:37:34;;;;;;;13.17;10.20;;;20.10;37.40;;;;;;5023370;28;20183;-70
2022/05/11 00:40:00;;;;;;;16.70;10.13;;;20.20;37.10;;;;;;5031458;28;20416;-70
2022/05/11 00:42:27;;;;;;;13.13;10.27;;;20.10;37.70;;;;;;5031253;28;20207;-70
2022/05/11 00:44:56;;;;;;;11.27;9.57;;;20.10;38.00;;;;;;5019701;28;20225;-69
2022/05/11 00:47:29;;;;;;;14.77;9.83;;;20.20;37.50;;;;;;5009417;28;20436;-70
2022/05/11 00:49:58;;;;;;;15.80;10.43;;;20.00;37.80;;;;;;5019151;28;20438;-70
2022/05/11 00:52:41;;;;;;;13.47;10.60;;;20.00;39.10;;;;;;5011846;28;20446;-70
2022/05/11 00:55:32;;;;;;;20.20;10.50;;;19.90;40.10;;;;;;5011166;28;20429;-70
2022/05/11 00:58:09;;;;;;;15.70;11.10;;;19.90;38.50;;;;;;5018494;28;20434;-70
2022/05/11 01:00:36;;;;;;;13.93;11.13;;;19.90;39.70;;;;;;5030999;28;20529;-70
2022/05/11 01:03:10;;;;;;;13.90;11.07;;;20.00;39.40;;;;;;5030645;28;20526;-70
2022/05/11 01:05:36;;;;;;;14.50;11.70;;;19.80;39.80;;;;;;5026739;28;20462;-70
2022/05/11 01:08:02;;;;;;;16.80;11.50;;;19.90;39.40;;;;;;5021270;28;20461;-70
2022/05/11 01:10:30;;;;;;;17.97;11.70;;;19.70;40.30;;;;;;5027800;28;20177;-70
2022/05/11 01:13:00;;;;;;;17.10;11.83;;;19.70;41.40;;;;;;5025020;28;20525;-70
2022/05/11 01:15:27;;;;;;;16.50;11.50;;;19.80;39.00;;;;;;5020269;28;20872;-70
2022/05/11 01:17:53;;;;;;;21.90;11.60;;;19.70;41.00;;;;;;5022475;28;20509;-70
2022/05/11 01:20:22;;;;;;;15.90;10.23;;;19.70;40.20;;;;;;5026408;28;20428;-70
2022/05/11 01:23:06;;;;;;;14.17;11.10;;;19.70;40.40;;;;;;5032305;28;20460;-70
2022/05/11 01:25:32;;;;;;;15.73;11.53;;;19.60;41.30;;;;;;5017800;28;20440;-70
2022/05/11 01:28:11;;;;;;;18.10;11.00;;;19.70;39.50;;;;;;5024557;28;20439;-70
2022/05/11 01:30:39;;;;;;;17.10;11.47;;;19.60;39.70;;;;;;5021624;28;20648;-70
2022/05/11 01:33:06;;;;;;;18.07;11.27;;;19.40;41.10;;;;;;5022778;28;20428;-70
2022/05/11 01:36:30;;;;;;;17.13;10.90;;;19.60;40.00;;;;;;5014464;28;20433;-70
2022/05/11 01:39:00;;;;;;;15.47;10.90;;;19.50;41.20;;;;;;4977797;28;20442;-70
2022/05/11 01:41:38;;;;;;;17.77;10.90;;;19.40;41.10;;;;;;4969874;28;20826;-70
2022/05/11 01:44:07;;;;;;;16.33;11.13;;;19.30;40.40;;;;;;4974538;28;20968;-70
2022/05/11 01:46:34;;;;;;;15.97;11.70;;;19.20;42.10;;;;;;4973446;28;20450;-70
2022/05/11 01:49:00;;;;;;;24.73;12.53;;;19.30;41.00;;;;;;4972393;28;20450;-70
2022/05/11 01:51:26;;;;;;;21.23;13.13;;;19.20;41.60;;;;;;4984846;28;20447;-70
2022/05/11 01:53:51;;;;;;;19.93;13.70;;;19.20;40.90;;;;;;4964005;28;20473;-70
2022/05/11 01:56:19;;;;;;;19.90;12.50;;;19.30;41.00;;;;;;4973382;28;20523;-70
2022/05/11 01:58:46;;;;;;;19.30;12.80;;;19.10;42.10;;;;;;4972342;28;20246;-70
2022/05/11 02:01:13;;;;;;;17.77;13.07;;;19.00;43.40;;;;;;4982357;28;20568;-70
2022/05/11 02:03:39;;;;;;;17.07;12.73;;;19.00;41.80;;;;;;4992319;28;20806;-70
2022/05/11 02:08:49;;;;;;;22.83;15.10;;;19.10;43.30;;;;;;4979198;28;20184;-70
2022/05/11 02:11:15;;;;;;;18.00;13.87;;;19.00;42.60;;;;;;5020380;28;20462;-70
2022/05/11 02:13:43;;;;;;;22.67;15.40;;;18.90;43.60;;;;;;5028147;28;20656;-70
2022/05/11 02:16:08;;;;;;;19.73;15.50;;;18.80;44.20;;;;;;5028979;28;20429;-70
2022/05/11 02:18:34;;;;;;;21.43;15.07;;;18.80;43.80;;;;;;5014115;28;20842;-70
2022/05/11 02:21:00;;;;;;;25.40;19.80;;;18.70;44.00;;;;;;5011938;28;20624;-70
2022/05/11 02:23:26;;;;;;;22.17;16.50;;;18.90;42.50;;;;;;5026270;28;20424;-70
2022/05/11 02:25:53;;;;;;;24.60;17.07;;;18.70;44.50;;;;;;5024178;28;20268;-70
2022/05/11 02:28:21;;;;;;;27.27;18.57;;;18.70;44.20;;;;;;5024881;28;20428;-70
2022/05/11 02:30:49;;;;;;;25.67;18.37;;;18.70;43.90;;;;;;5016246;28;20447;-70
2022/05/11 02:33:15;;;;;;;28.20;19.00;;;18.70;43.50;;;;;;5024186;28;20451;-70
2022/05/11 02:35:42;;;;;;;25.20;19.33;;;18.50;44.20;;;;;;5033692;28;20419;-70
2022/05/11 02:38:12;;;;;;;25.00;18.60;;;18.50;44.60;;;;;;5024106;28;20420;-70
2022/05/11 02:40:40;;;;;;;24.43;18.60;;;18.60;43.40;;;;;;5012490;28;20447;-70
2022/05/11 02:43:06;;;;;;;24.57;17.90;;;18.60;43.70;;;;;;5016982;28;20468;-70
2022/05/11 02:45:34;;;;;;;27.13;18.20;;;18.70;43.60;;;;;;5021792;28;20420;-69
2022/05/11 02:48:02;;;;;;;29.93;17.10;;;18.60;43.40;;;;;;5011790;28;20416;-70
2022/05/11 02:50:32;;;;;;;30.43;16.77;;;18.50;43.80;;;;;;5012747;28;20958;-69
2022/05/11 02:52:58;;;;;;;27.33;15.67;;;18.50;44.20;;;;;;5011870;28;20880;-69
2022/05/11 02:55:24;;;;;;;23.90;17.10;;;18.30;45.50;;;;;;5030783;28;20877;-70
2022/05/11 02:57:50;;;;;;;23.43;16.83;;;18.20;46.10;;;;;;5020702;28;20428;-70
2022/05/11 03:00:18;;;;;;;22.60;16.67;;;18.20;45.40;;;;;;5013724;28;20434;-70
2022/05/11 03:02:45;;;;;;;26.30;15.87;;;18.20;45.80;;;;;;5017054;28;20655;-70
2022/05/11 03:05:12;;;;;;;23.00;17.07;;;18.20;45.90;;;;;;5024703;28;20415;-70
2022/05/11 03:07:38;;;;;;;22.50;15.00;;;18.20;45.10;;;;;;5033132;28;20435;-70
2022/05/11 03:10:05;;;;;;;23.20;16.00;;;18.10;46.80;;;;;;5023654;28;20913;-70
2022/05/11 03:12:32;;;;;;;25.17;16.10;;;18.30;46.00;;;;;;5012221;28;20517;-70
2022/05/11 03:14:59;;;;;;;24.57;15.90;;;18.20;46.60;;;;;;5020798;28;20524;-70
2022/05/11 03:17:25;;;;;;;24.70;16.57;;;18.20;46.50;;;;;;5026966;28;21085;-69
2022/05/11 03:19:51;;;;;;;24.30;15.40;;;18.20;46.30;;;;;;5018753;28;20446;-70
2022/05/11 03:22:17;;;;;;;26.50;16.87;;;18.30;45.30;;;;;;5018586;28;20988;-70
2022/05/11 03:24:42;;;;;;;25.40;17.03;;;18.30;47.10;;;;;;5018948;28;20269;-69
2022/05/11 03:27:08;;;;;;;22.10;16.47;;;18.40;45.40;;;;;;5030944;28;20920;-70
2022/05/11 03:29:34;;;;;;;30.40;16.70;;;18.40;45.70;;;;;;5031739;28;20180;-70
2022/05/11 03:34:45;;;;;;;32.77;16.40;;;18.20;45.40;;;;;;5017627;28;20481;-69
2022/05/11 03:37:14;;;;;;;24.43;17.27;;;18.10;46.70;;;;;;5024022;28;20420;-70
2022/05/11 03:39:41;;;;;;;21.87;15.93;;;18.20;45.80;;;;;;5032271;28;20419;-69
2022/05/11 03:42:07;;;;;;;23.70;15.70;;;18.40;45.50;;;;;;5022610;28;20496;-70
2022/05/11 03:44:33;;;;;;;23.67;16.23;;;18.40;45.30;;;;;;5008923;28;20443;-70
2022/05/11 03:46:59;;;;;;;21.60;15.50;;;18.30;45.50;;;;;;5010807;28;20416;-70
2022/05/11 03:49:24;;;;;;;21.47;15.60;;;18.10;46.60;;;;;;5012516;28;20189;-70
2022/05/11 03:51:51;;;;;;;22.40;16.07;;;18.20;46.00;;;;;;5012017;28;20228;-70
2022/05/11 03:54:17;;;;;;;21.53;15.47;;;18.10;46.20;;;;;;5011944;28;20640;-70
2022/05/11 03:56:43;;;;;;;19.53;15.30;;;18.30;46.30;;;;;;5019202;28;20453;-71
2022/05/11 03:59:09;;;;;;;23.57;16.27;;;18.00;46.60;;;;;;5020897;28;20447;-70
2022/05/11 04:01:35;;;;;;;22.07;15.10;;;18.00;46.60;;;;;;5023408;28;20469;-70
2022/05/11 04:04:01;;;;;;;20.70;15.40;;;18.10;46.60;;;;;;5018867;28;20917;-70
2022/05/11 04:06:27;;;;;;;21.40;15.67;;;18.10;46.20;;;;;;5016330;28;20437;-70
2022/05/11 04:08:53;;;;;;;18.30;14.27;;;18.10;47.30;;;;;;5022231;28;20474;-70
2022/05/11 04:11:19;;;;;;;36.13;16.00;;;18.00;46.30;;;;;;5011806;28;20205;-69
2022/05/11 04:13:45;;;;;;;20.30;14.57;;;18.10;47.30;;;;;;5011570;28;20181;-70
2022/05/11 04:16:11;;;;;;;22.93;15.90;;;18.20;47.00;;;;;;5009541;28;20432;-69
2022/05/11 04:18:37;;;;;;;19.67;14.40;;;18.20;46.80;;;;;;5016509;28;20845;-70
2022/05/11 04:21:03;;;;;;;19.43;14.90;;;18.10;46.60;;;;;;5014052;28;20643;-70
2022/05/11 04:23:29;;;;;;;23.93;16.60;;;18.00;46.80;;;;;;5017812;28;20232;-70
2022/05/11 04:25:56;;;;;;;23.70;17.47;;;18.10;47.90;;;;;;5018387;28;20920;-70
2022/05/11 04:28:23;;;;;;;23.30;16.37;;;18.10;47.10;;;;;;5012585;28;20191;-70
2022/05/11 04:30:49;;;;;;;21.67;15.20;;;18.10;47.70;;;;;;5015690;28;21853;-70
2022/05/11 04:33:14;;;;;;;21.00;15.90;;;18.00;47.00;;;;;;5011275;28;20448;-70
2022/05/11 04:35:40;;;;;;;21.10;15.53;;;18.10;47.80;;;;;;5011180;28;20916;-70
2022/05/11 04:38:07;;;;;;;26.23;15.33;;;18.20;47.60;;;;;;5009699;28;20648;-70
2022/05/11 04:40:34;;;;;;;23.03;15.53;;;18.10;48.10;;;;;;5024198;28;20186;-70
2022/05/11 04:43:07;;;;;;;21.73;14.40;;;18.10;47.90;;;;;;5031141;28;20474;-70
2022/05/11 04:45:35;;;;;;;26.07;16.20;;;18.20;48.40;;;;;;5024661;28;20435;-70
2022/05/11 04:48:01;;;;;;;18.33;14.80;;;18.30;48.20;;;;;;5010194;28;20443;-70
2022/05/11 04:50:26;;;;;;;21.70;15.23;;;18.40;48.00;;;;;;5023251;28;20415;-70
2022/05/11 04:52:52;;;;;;;21.53;15.37;;;18.40;48.20;;;;;;5014338;28;20213;-70
2022/05/11 04:55:18;;;;;;;24.90;14.90;;;18.50;47.30;;;;;;5022119;28;20187;-70
2022/05/11 04:57:43;;;;;;;28.87;16.30;;;18.50;48.30;;;;;;5012995;28;20905;-70
2022/05/11 05:00:12;;;;;;;22.10;15.50;;;18.60;48.20;;;;;;5018070;28;20191;-70
2022/05/11 05:02:38;;;;;;;21.00;14.67;;;19.00;46.40;;;;;;5015501;28;20616;-70
2022/05/11 05:05:05;;;;;;;19.70;14.70;;;19.00;47.30;;;;;;5022916;28;20429;-70
2022/05/11 05:07:35;;;;;;;21.13;14.87;;;19.00;47.20;;;;;;5030921;28;20411;-71
2022/05/11 05:10:04;;;;;;;20.97;14.33;;;19.00;46.70;;;;;;5031239;28;20485;-70
2022/05/11 05:12:30;;;;;;;24.90;14.30;;;19.30;45.60;;;;;;5025158;28;20461;-69
2022/05/11 05:14:56;;;;;;;20.00;14.40;;;19.20;43.30;;;;;;5022881;28;20429;-70
2022/05/11 05:17:22;;;;;;;17.50;12.80;;;19.20;43.60;;;;;;5019685;28;20937;-69
2022/05/11 05:19:49;;;;;;;18.97;12.67;;;18.60;44.30;;;;;;5017153;28;20494;-69
2022/05/11 05:22:15;;;;;;;25.03;13.87;;;18.20;45.50;;;;;;5011417;28;20971;-70
2022/05/11 05:24:41;;;;;;;22.07;13.50;;;18.20;44.80;;;;;;5011300;28;20421;-70
2022/05/11 05:27:07;;;;;;;20.80;15.23;;;18.30;45.80;;;;;;5011327;28;20489;-70
2022/05/11 05:32:17;;;;;;;33.53;16.87;;;18.80;44.80;;;;;;5030148;28;20260;-70
2022/05/11 05:34:43;;;;;;;27.57;17.13;;;18.60;45.40;;;;;;5018292;28;20489;-70
2022/05/11 05:37:10;;;;;;;24.07;17.77;;;18.60;44.90;;;;;;5011525;28;20454;-69
2022/05/11 05:39:36;;;;;;;27.87;18.50;;;18.70;43.60;;;;;;5018547;28;20451;-70
2022/05/11 05:42:01;;;;;;;20.40;15.60;;;19.20;42.00;;;;;;5010129;28;21030;-70
2022/05/11 05:44:31;;;;;;;18.97;14.60;;;19.00;42.30;;;;;;5019194;28;20279;-70
2022/05/11 05:47:06;;;;;;;24.70;14.00;;;19.10;40.80;;;;;;5009092;28;20184;-71
2022/05/11 05:49:32;;;;;;;17.20;14.03;;;18.80;42.90;;;;;;5021889;28;20798;-70
2022/05/11 05:52:02;;;;;;;21.23;13.20;;;18.80;42.80;;;;;;5012035;28;20447;-70
2022/05/11 05:54:38;;;;;;;21.13;14.90;;;18.70;43.30;;;;;;5014670;28;20709;-70
2022/05/11 05:57:04;;;;;;;26.43;14.67;;;18.80;43.30;;;;;;5015887;28;20475;-75
2022/05/11 05:59:30;;;;;;;20.57;14.53;;;18.80;42.60;;;;;;5022771;28;20427;-75
2022/05/11 06:01:56;;;;;;;17.70;12.80;;;18.70;43.70;;;;;;5013771;28;20499;-75
2022/05/11 06:04:22;;;;;;;16.20;12.47;;;18.40;44.70;;;;;;5013672;28;20196;-75
2022/05/11 06:06:48;;;;;;;33.87;13.00;;;18.50;44.90;;;;;;5013641;28;20478;-76
2022/05/11 06:09:14;;;;;;;18.23;13.10;;;18.20;45.60;;;;;;5021134;28;20212;-75
2022/05/11 06:11:39;;;;;;;23.70;14.47;;;18.30;46.20;;;;;;5031632;28;20715;-76
2022/05/11 06:14:06;;;;;;;17.90;13.23;;;18.20;46.60;;;;;;5030496;28;20555;-75
2022/05/11 06:16:32;;;;;;;23.37;13.70;;;17.90;47.70;;;;;;5014388;28;20263;-76
2022/05/11 06:18:59;;;;;;;23.23;13.60;;;18.40;47.10;;;;;;5011967;28;20815;-76
2022/05/11 06:21:25;;;;;;;23.07;14.43;;;19.10;44.10;;;;;;5020636;28;20449;-76
2022/05/11 06:23:51;;;;;;;21.10;14.37;;;19.10;44.00;;;;;;5013924;28;20411;-76
2022/05/11 06:26:19;;;;;;;23.27;15.80;;;18.90;44.50;;;;;;5012383;28;20456;-76
2022/05/11 06:28:46;;;;;;;31.00;17.80;;;18.90;44.10;;;;;;5003522;28;20444;-76
2022/05/11 06:31:13;;;;;;;34.87;17.60;;;18.80;46.20;;;;;;5021444;28;20459;-72
2022/05/11 06:33:40;;;;;;;24.97;16.67;;;19.50;44.10;;;;;;5026808;28;20416;-75
2022/05/11 06:36:08;;;;;;;23.40;16.67;;;19.70;42.20;;;;;;5024440;28;20517;-72
2022/05/11 06:38:34;;;;;;;24.77;16.97;;;20.20;40.80;;;;;;5026491;28;20504;-73
2022/05/11 06:41:08;;;;;;;27.30;17.10;;;20.50;39.80;;;;;;5027439;28;20459;-72
2022/05/11 06:43:34;;;;;;;23.67;16.87;;;20.70;39.00;;;;;;5025291;28;20463;-73
2022/05/11 06:45:59;;;;;;;25.27;15.90;;;21.00;37.20;;;;;;5028260;28;20431;-74
2022/05/11 06:48:25;;;;;;;21.73;15.50;;;20.60;37.70;;;;;;5014069;28;20170;-72
2022/05/11 06:50:50;;;;;;;22.83;15.23;;;20.40;39.50;;;;;;5012174;28;20247;-72
2022/05/11 06:53:17;;;;;;;24.73;15.03;;;20.60;39.60;;;;;;5011847;28;20218;-72
2022/05/11 07:01:14;;;;;;;24.50;14.20;;;21.10;39.00;;;;;;5013413;28;20552;-72
2022/05/11 07:03:40;;;;;;;20.77;13.80;;;21.30;37.60;;;;;;5007346;28;20449;-72
2022/05/11 07:06:06;;;;;;;22.23;14.50;;;21.40;37.10;;;;;;5017020;28;20439;-74
2022/05/11 07:08:42;;;;;;;19.97;14.23;;;21.20;38.50;;;;;;5012670;28;20441;-74
2022/05/11 07:13:56;;;;;;;29.57;14.10;;;21.80;37.80;;;;;;5014665;28;20530;-72
2022/05/11 07:16:23;;;;;;;22.67;14.10;;;21.60;36.40;;;;;;5013513;28;20904;-72
2022/05/11 07:18:49;;;;;;;20.70;13.10;;;21.50;38.20;;;;;;5010623;28;20447;-72
2022/05/11 07:21:15;;;;;;;21.73;14.80;;;21.50;37.80;;;;;;5024552;28;20539;-72
2022/05/11 07:23:41;;;;;;;18.60;13.60;;;21.70;37.50;;;;;;5015373;28;20444;-76
2022/05/11 07:26:06;;;;;;;26.27;14.63;;;21.50;38.10;;;;;;5012940;28;20221;-72
2022/05/11 07:28:32;;;;;;;27.83;14.80;;;21.50;38.20;;;;;;5011377;28;20624;-72
2022/05/11 07:30:58;;;;;;;17.27;13.03;;;21.50;38.40;;;;;;5020352;28;20209;-71
2022/05/11 07:33:24;;;;;;;17.63;13.37;;;21.30;39.50;;;;;;5012794;28;20189;-72
2022/05/11 07:35:50;;;;;;;25.13;15.80;;;21.30;40.20;;;;;;5012994;28;20215;-72
2022/05/11 07:38:18;;;;;;;29.77;14.83;;;21.40;39.00;;;;;;5011757;28;20468;-72
2022/05/11 07:40:44;;;;;;;29.13;13.77;;;21.80;37.90;;;;;;5010031;28;20266;-76
2022/05/11 07:43:10;;;;;;;24.63;12.40;;;22.30;36.80;;;;;;5020800;28;20469;-72
2022/05/11 07:45:37;;;;;;;16.50;12.47;;;22.20;36.50;;;;;;5012564;28;20421;-72
2022/05/11 07:48:03;;;;;;;19.97;11.87;;;22.80;36.30;;;;;;5011716;28;20281;-72
2022/05/11 07:50:30;;;;;;;20.93;10.50;;;23.10;34.70;;;;;;5012529;28;20510;-72
2022/05/11 07:52:56;;;;;;;16.50;10.00;;;23.10;34.00;;;;;;5012386;28;20422;-72
2022/05/11 07:55:25;;;;;;;13.67;9.17;;;23.30;33.30;;;;;;5012737;28;20765;-72
2022/05/11 08:00:35;;;;;;;36.33;7.37;;;23.40;29.10;;;;;;5011865;28;20461;-72
2022/05/11 08:03:01;;;;;;;10.90;6.47;;;23.50;29.50;;;;;;5011950;28;20455;-72
2022/05/11 08:05:27;;;;;;;10.07;6.67;;;23.70;28.00;;;;;;5012700;28;20416;-72
2022/05/11 08:07:56;;;;;;;11.20;6.77;;;23.80;27.60;;;;;;5012483;28;20627;-72
2022/05/11 08:10:29;;;;;;;8.37;6.80;;;23.80;27.70;;;;;;5011738;28;20420;-71
2022/05/11 08:12:55;;;;;;;7.90;6.23;;;24.00;27.40;;;;;;5010773;28;20451;-74
2022/05/11 08:15:23;;;;;;;34.67;7.47;;;23.90;27.40;;;;;;5011962;28;20474;-72
2022/05/11 08:17:50;;;;;;;8.07;6.30;;;24.30;27.80;;;;;;5012313;28;20484;-74
2022/05/11 08:20:26;;;;;;;10.43;6.30;;;24.70;26.50;;;;;;5011150;28;20419;-72
2022/05/11 08:22:52;;;;;;;10.77;6.20;;;24.80;25.70;;;;;;5011902;28;20467;-72
2022/05/11 08:25:20;;;;;;;7.50;5.90;;;24.50;25.60;;;;;;5011106;28;20503;-73
2022/05/11 08:27:47;;;;;;;11.07;6.40;;;24.60;25.90;;;;;;5012181;28;20415;-72
2022/05/11 08:35:45;;;;;;;10.03;6.40;;;25.10;24.10;;;;;;5012150;28;20789;-73
2022/05/11 08:38:11;;;;;;;10.47;6.60;;;25.20;24.50;;;;;;5012579;28;20412;-72
2022/05/11 08:40:40;;;;;;;9.33;6.00;;;24.90;24.50;;;;;;5012247;28;20418;-73
2022/05/11 08:43:14;;;;;;;9.53;6.13;;;24.70;25.50;;;;;;5011937;28;20446;-77
2022/05/11 08:46:01;;;;;;;8.47;7.00;;;25.30;24.70;;;;;;5011632;28;20442;-72
2022/05/11 08:48:56;;;;;;;7.97;6.60;;;25.70;23.90;;;;;;5011790;28;20435;-73
2022/05/11 08:51:31;;;;;;;8.17;7.07;;;25.30;25.20;;;;;;5012128;28;20833;-72
2022/05/11 08:54:15;;;;;;;9.10;6.70;;;25.60;25.20;;;;;;5012157;28;20570;-72
2022/05/11 08:56:43;;;;;;;9.10;7.13;;;25.90;24.60;;;;;;5011879;28;20392;-74
2022/05/11 08:59:19;;;;;;;13.63;6.40;;;25.80;24.00;;;;;;5011479;28;20472;-72
2022/05/11 09:01:51;;;;;;;11.73;6.70;;;26.20;23.10;;;;;;5011085;28;20471;-72
2022/05/11 09:04:22;;;;;;;9.40;6.40;;;26.00;23.30;;;;;;5011919;28;20408;-74
2022/05/11 09:06:48;;;;;;;15.43;7.10;;;25.40;24.00;;;;;;5011784;28;20424;-72
2022/05/11 09:09:16;;;;;;;14.30;6.87;;;25.70;23.50;;;;;;5011447;28;20435;-72
2022/05/11 09:11:48;;;;;;;8.43;6.67;;;25.80;23.70;;;;;;5011835;28;20846;-72
2022/05/11 09:14:18;;;;;;;11.03;6.70;;;25.90;23.20;;;;;;5011412;28;20558;-75
2022/05/11 09:16:50;;;;;;;14.50;6.57;;;25.80;23.80;;;;;;5011831;28;20408;-74
2022/05/11 09:19:22;;;;;;;11.20;6.87;;;26.10;23.10;;;;;;5010416;28;20776;-73
2022/05/11 09:21:51;;;;;;;7.83;6.70;;;26.40;23.50;;;;;;5011328;28;20552;-74
2022/05/11 09:24:17;;;;;;;7.50;6.60;;;25.90;23.20;;;;;;5011325;28;20420;-72
2022/05/11 09:26:46;;;;;;;9.83;6.63;;;26.40;22.90;;;;;;5011445;28;20430;-72
2022/05/11 09:29:22;;;;;;;9.00;7.03;;;26.50;22.90;;;;;;5015324;28;20251;-72
2022/05/11 09:31:50;;;;;;;9.23;7.20;;;26.80;22.30;;;;;;4994970;28;20483;-72
2022/05/11 09:34:33;;;;;;;9.80;6.87;;;26.40;22.80;;;;;;4995452;28;20417;-73
2022/05/11 09:37:14;;;;;;;11.27;7.17;;;25.90;23.20;;;;;;5006585;28;20879;-72
2022/05/11 09:39:55;;;;;;;10.63;6.77;;;26.20;23.00;;;;;;5014063;28;20415;-73
2022/05/11 09:42:30;;;;;;;9.90;7.50;;;26.30;23.50;;;;;;5014143;28;20558;-73
2022/05/11 09:44:56;;;;;;;13.83;7.10;;;26.70;22.60;;;;;;5015003;28;20873;-73
2022/05/11 09:47:35;;;;;;;13.70;7.00;;;26.70;22.80;;;;;;5013688;28;20424;-72
2022/05/11 09:50:26;;;;;;;11.20;7.33;;;26.90;22.30;;;;;;5015225;28;20164;-72
2022/05/11 09:53:07;;;;;;;14.77;7.73;;;26.70;22.40;;;;;;5013924;28;21038;-72
2022/05/11 09:55:33;;;;;;;11.80;6.87;;;27.10;23.00;;;;;;5015702;28;20808;-73
2022/05/11 09:58:07;;;;;;;9.03;6.90;;;27.10;21.40;;;;;;5015054;28;20518;-74
2022/05/11 10:00:38;;;;;;;8.73;7.27;;;26.70;22.40;;;;;;5014332;28;20760;-72
2022/05/11 10:03:28;;;;;;;8.60;6.97;;;27.00;22.70;;;;;;5014568;28;20452;-72
2022/05/11 10:05:54;;;;;;;12.20;6.50;;;27.40;22.40;;;;;;5014138;28;20466;-72
2022/05/11 10:08:32;;;;;;;9.23;6.93;;;28.10;21.40;;;;;;5016016;28;20404;-73
2022/05/11 10:11:24;;;;;;;15.17;6.83;;;27.80;20.80;;;;;;5014630;28;20510;-72
2022/05/11 10:21:50;;;;;;;10.97;7.10;;;28.20;21.80;;;;;;5014163;28;20431;-72
2022/05/11 10:22:39;;;;;;;13.10;7.20;;;28.30;19.70;;;;;;4995877;28;20551;-72
2022/05/11 10:25:22;;;;;;;8.70;6.70;;;27.80;21.00;;;;;;5015096;28;20420;-72
2022/05/11 10:28:23;;;;;;;8.20;6.80;;;28.10;20.00;;;;;;5016320;28;20472;-72
2022/05/11 10:30:58;;;;;;;14.97;6.90;;;28.30;21.10;;;;;;5001929;28;20446;-73
2022/05/11 10:33:54;;;;;;;13.23;6.83;;;27.60;20.80;;;;;;5016928;28;20414;-73
2022/05/11 10:36:35;;;;;;;10.10;7.40;;;27.40;21.50;;;;;;4996309;28;20407;-74
2022/05/11 10:39:17;;;;;;;10.03;7.37;;;27.60;20.50;;;;;;4994338;28;20812;-73
2022/05/11 10:41:53;;;;;;;9.67;6.93;;;28.00;20.40;;;;;;4994518;28;20467;-74
2022/05/11 10:44:38;;;;;;;16.83;7.10;;;28.40;19.50;;;;;;4998242;28;20780;-72
2022/05/11 10:47:13;;;;;;;10.90;6.73;;;28.60;19.80;;;;;;5014524;28;20408;-73
2022/05/11 10:50:29;;;;;;;9.90;6.47;;;29.00;20.30;;;;;;5014261;28;20893;-73
2022/05/11 10:53:14;;;;;;;10.30;6.90;;;28.80;19.10;;;;;;4953394;29;20442;-73
2022/05/11 10:56:11;;;;;;;9.37;6.90;;;29.00;19.60;;;;;;5013149;28;20466;-72
2022/05/11 10:59:02;;;;;;;13.20;7.27;;;28.50;19.40;;;;;;5009279;28;20515;-73
2022/05/11 11:01:48;;;;;;;12.73;7.00;;;28.60;19.30;;;;;;5013284;28;20455;-72
2022/05/11 11:04:30;;;;;;;8.97;7.10;;;28.50;19.40;;;;;;5013725;28;20408;-72
2022/05/11 11:07:15;;;;;;;11.80;6.80;;;28.10;20.30;;;;;;5013174;28;20462;-73
2022/05/11 11:09:46;;;;;;;7.67;6.47;;;27.90;21.10;;;;;;5013899;28;20415;-73
2022/05/11 11:12:40;;;;;;;12.07;7.63;;;28.70;20.70;;;;;;5012635;28;20428;-78
2022/05/11 11:15:12;;;;;;;10.23;6.70;;;28.70;18.80;;;;;;5011900;28;20416;-73
2022/05/11 11:17:39;;;;;;;11.10;7.00;;;29.20;18.10;;;;;;5013254;28;20428;-73
2022/05/11 11:20:07;;;;;;;10.70;6.50;;;29.90;18.50;;;;;;5013565;28;20444;-73
2022/05/11 11:23:02;;;;;;;7.60;6.00;;;30.70;18.90;;;;;;4997787;28;20457;-76
2022/05/11 11:25:44;;;;;;;8.90;6.17;;;31.00;15.60;;;;;;4994035;28;20412;-73
2022/05/11 11:28:15;;;;;;;9.70;5.97;;;30.60;15.30;;;;;;5006109;28;20499;-73
2022/05/11 11:30:59;;;;;;;11.00;5.77;;;30.40;16.50;;;;;;5013200;28;20515;-77
2022/05/11 11:33:28;;;;;;;8.60;5.83;;;30.50;16.70;;;;;;5013434;28;20487;-74
2022/05/11 11:36:16;;;;;;;9.17;5.90;;;31.00;15.00;;;;;;5013300;28;20495;-74
2022/05/11 11:38:41;;;;;;;9.37;5.93;;;31.10;16.30;;;;;;5012944;28;20431;-73
2022/05/11 11:41:19;;;;;;;12.13;6.57;;;31.20;15.70;;;;;;5013719;28;20486;-74
2022/05/11 11:43:53;;;;;;;11.73;6.00;;;31.70;15.40;;;;;;5012405;28;20196;-73
2022/05/11 11:46:34;;;;;;;10.10;5.60;;;31.60;15.00;;;;;;5013333;28;20412;-73
2022/05/11 11:49:03;;;;;;;9.73;5.80;;;32.10;14.60;;;;;;5013128;28;20514;-76
2022/05/11 11:51:54;;;;;;;11.80;6.03;;;32.80;13.60;;;;;;5013244;28;20424;-74
2022/05/11 11:54:38;;;;;;;7.53;5.50;;;33.20;13.20;;;;;;5011424;28;20455;-74
2022/05/11 11:57:23;;;;;;;15.07;5.53;;;33.70;11.90;;;;;;5012893;28;20412;-75
2022/05/11 11:59:56;;;;;;;6.40;5.50;;;32.70;12.60;;;;;;5012732;28;20408;-75
2022/05/11 12:02:40;;;;;;;8.10;4.70;;;31.60;14.50;;;;;;5012242;28;20463;-75
2022/05/11 12:05:27;;;;;;;13.73;5.37;;;32.30;13.20;;;;;;5012421;28;20495;-73
2022/05/11 12:16:26;;;;;;;6.93;5.20;;;34.30;11.50;;;;;;5012526;28;20415;-73
2022/05/11 12:18:52;;;;;;;6.70;5.23;;;35.10;9.80;;;;;;5010945;28;20440;-74
2022/05/11 12:21:32;;;;;;;8.80;4.73;;;33.60;11.80;;;;;;5012171;28;20447;-73
2022/05/11 12:24:01;;;;;;;12.73;5.17;;;35.30;10.00;;;;;;5012116;28;20905;-74
2022/05/11 12:26:39;;;;;;;14.60;4.60;;;36.00;8.40;;;;;;5012494;28;20412;-74
2022/05/11 12:32:02;;;;;;;7.80;5.17;;;36.30;7.60;;;;;;5011906;28;20570;-76
2022/05/11 12:34:29;;;;;;;16.43;5.30;;;35.90;10.90;;;;;;5010735;28;20424;-74
2022/05/11 12:36:56;;;;;;;12.63;5.07;;;36.00;8.60;;;;;;5012478;28;20412;-74
2022/05/11 12:39:36;;;;;;;12.43;5.30;;;36.80;8.70;;;;;;5012012;28;20466;-74
2022/05/11 12:42:03;;;;;;;6.23;5.00;;;37.00;9.70;;;;;;5012231;28;20491;-74
2022/05/11 12:44:36;;;;;;;6.47;5.00;;;35.20;10.00;;;;;;5011857;28;20424;-73
2022/05/11 12:47:04;;;;;;;8.13;5.20;;;32.60;11.40;;;;;;5013117;28;20393;-73
2022/05/11 12:49:30;;;;;;;9.30;5.47;;;33.70;13.80;;;;;;5011657;28;20408;-73
2022/05/11 12:52:02;;;;;;;12.10;5.13;;;33.10;12.40;;;;;;5011737;28;20794;-74
2022/05/11 12:54:29;;;;;;;14.87;5.57;;;33.10;11.80;;;;;;5012637;28;20905;-74
2022/05/11 12:57:15;;;;;;;10.90;5.33;;;32.70;11.30;;;;;;5012653;28;20761;-74
2022/05/11 12:59:49;;;;;;;7.50;4.90;;;33.70;11.40;;;;;;5012058;28;20392;-75
2022/05/11 13:02:26;;;;;;;7.20;4.80;;;33.30;10.80;;;;;;4995533;28;20525;-73
2022/05/11 13:04:57;;;;;;;6.13;4.83;;;33.70;11.00;;;;;;5012445;28;20459;-74
2022/05/11 13:07:43;;;;;;;12.70;5.00;;;33.10;11.80;;;;;;5016420;28;20909;-74
2022/05/11 13:10:15;;;;;;;9.67;5.40;;;34.10;11.90;;;;;;5016736;28;20404;-73
2022/05/11 13:12:46;;;;;;;9.13;4.93;;;33.80;9.90;;;;;;5016116;28;20431;-73
2022/05/11 13:15:12;;;;;;;9.07;5.33;;;33.10;11.70;;;;;;5016305;28;20428;-75
2022/05/11 13:17:44;;;;;;;8.77;5.43;;;31.80;11.90;;;;;;5017988;28;20454;-74
2022/05/11 13:20:19;;;;;;;11.60;5.77;;;32.60;11.80;;;;;;5016787;28;20165;-74
2022/05/11 13:22:58;;;;;;;10.17;5.03;;;33.10;12.00;;;;;;5016241;28;20462;-74
2022/05/11 13:25:44;;;;;;;10.27;4.80;;;34.20;10.30;;;;;;5015859;28;20430;-74
2022/05/11 13:28:26;;;;;;;18.40;5.40;;;33.60;11.60;;;;;;5017289;28;20400;-73
2022/05/11 13:30:56;;;;;;;8.93;5.40;;;33.80;10.30;;;;;;5015349;28;20435;-73
2022/05/11 13:33:41;;;;;;;8.77;5.37;;;33.70;10.00;;;;;;5017142;28;20770;-74